createdAt,value
2019-06-26T00:02:43.911Z,23.44
2019-06-26T00:05:45.393Z,23.44
2019-06-26T00:08:46.850Z,23.56
2019-06-26T00:11:48.335Z,23.75
2019-06-26T00:14:49.784Z,23.94
2019-06-26T00:17:51.221Z,23.87
2019-06-26T00:20:52.687Z,23.94
2019-06-26T00:23:54.146Z,23.75
2019-06-26T00:26:56.770Z,23.62
2019-06-26T00:29:58.268Z,23.00
2019-06-26T00:32:59.722Z,23.06
2019-06-26T00:36:01.134Z,23.00
2019-06-26T00:39:03.438Z,22.75
2019-06-26T00:42:05.931Z,22.75
2019-06-26T00:45:07.772Z,22.75
2019-06-26T00:48:09.184Z,22.62
2019-06-26T00:51:10.589Z,22.81
2019-06-26T00:54:12.005Z,22.50
2019-06-26T00:57:13.546Z,22.94
2019-06-26T01:00:15.604Z,23.12
2019-06-26T01:03:17.085Z,23.00
2019-06-26T01:06:36.075Z,23.00
2019-06-26T01:09:37.524Z,22.62
2019-06-26T01:12:38.983Z,23.12
2019-06-26T01:15:40.447Z,23.12
2019-06-26T01:18:41.977Z,23.12
2019-06-26T01:21:43.428Z,22.94
2019-06-26T01:24:44.988Z,23.19
2019-06-26T01:27:46.448Z,22.87
2019-06-26T01:30:47.908Z,22.69
2019-06-26T01:33:49.436Z,22.62
2019-06-26T01:36:50.860Z,22.87
2019-06-26T01:39:52.392Z,22.87
2019-06-26T01:42:53.885Z,22.69
2019-06-26T01:45:55.366Z,22.56
2019-06-26T01:48:56.798Z,22.75
2019-06-26T01:51:58.210Z,22.37
2019-06-26T01:54:59.681Z,22.62
2019-06-26T01:58:01.164Z,22.69
2019-06-26T02:01:02.634Z,22.75
2019-06-26T02:04:04.105Z,22.75
2019-06-26T02:07:05.605Z,22.94
2019-06-26T02:10:08.662Z,22.50
2019-06-26T02:13:10.145Z,22.37
2019-06-26T02:16:12.744Z,22.25
2019-06-26T02:19:15.818Z,22.13
2019-06-26T02:22:17.293Z,22.69
2019-06-26T02:25:19.302Z,22.56
2019-06-26T02:28:20.755Z,22.69
2019-06-26T02:31:22.311Z,22.56
2019-06-26T02:34:23.757Z,22.25
2019-06-26T02:37:25.201Z,22.37
2019-06-26T02:40:26.758Z,22.37
2019-06-26T02:43:28.234Z,22.56
2019-06-26T02:46:29.668Z,22.44
2019-06-26T02:49:31.096Z,22.44
2019-06-26T02:52:32.655Z,22.50
2019-06-26T02:55:34.131Z,22.75
2019-06-26T02:58:35.610Z,22.31
2019-06-26T03:01:37.077Z,22.25
2019-06-26T03:04:38.554Z,22.25
2019-06-26T03:07:41.181Z,22.00
2019-06-26T03:10:42.622Z,21.87
2019-06-26T03:13:44.038Z,21.94
2019-06-26T03:16:45.492Z,22.13
2019-06-26T03:19:47.040Z,21.87
2019-06-26T03:22:48.471Z,22.13
2019-06-26T03:25:50.999Z,22.13
2019-06-26T03:28:52.454Z,22.37
2019-06-26T03:31:53.908Z,22.44
2019-06-26T03:34:55.418Z,22.25
2019-06-26T03:37:56.846Z,21.94
2019-06-26T03:40:58.377Z,22.13
2019-06-26T03:43:59.876Z,22.13
2019-06-26T03:47:01.416Z,22.06
2019-06-26T03:50:02.951Z,21.87
2019-06-26T03:53:04.486Z,22.00
2019-06-26T03:56:06.089Z,22.06
2019-06-26T03:59:07.639Z,22.25
2019-06-26T04:02:09.127Z,22.13
2019-06-26T04:05:10.753Z,22.13
2019-06-26T04:08:12.195Z,22.19
2019-06-26T04:11:13.778Z,22.19
2019-06-26T04:14:15.250Z,22.19
2019-06-26T04:17:16.711Z,22.19
2019-06-26T04:20:18.252Z,22.19
2019-06-26T04:23:19.791Z,22.13
2019-06-26T04:26:21.282Z,22.25
2019-06-26T04:29:22.877Z,22.13
2019-06-26T04:32:24.291Z,22.25
2019-06-26T04:35:25.724Z,22.37
2019-06-26T04:38:27.149Z,22.25
2019-06-26T04:41:28.661Z,22.44
2019-06-26T04:44:30.169Z,22.44
2019-06-26T04:47:31.615Z,22.50
2019-06-26T04:50:33.055Z,22.62
2019-06-26T04:53:34.793Z,22.44
2019-06-26T04:56:36.244Z,22.56
2019-06-26T04:59:37.733Z,22.62
2019-06-26T05:02:39.195Z,22.69
2019-06-26T05:05:44.297Z,22.62
2019-06-26T05:08:43.833Z,22.75
2019-06-26T05:11:45.253Z,22.87
2019-06-26T05:14:46.747Z,22.94
2019-06-26T05:17:48.357Z,23.06
2019-06-26T05:20:50.779Z,23.12
2019-06-26T05:23:52.312Z,23.19
2019-06-26T05:26:53.880Z,23.25
2019-06-26T05:29:55.284Z,23.31
2019-06-26T05:32:56.711Z,23.31
2019-06-26T05:35:58.225Z,23.44
2019-06-26T05:38:59.634Z,23.56
2019-06-26T05:42:01.140Z,23.62
2019-06-26T05:45:02.976Z,23.75
2019-06-26T05:48:04.808Z,23.81
2019-06-26T05:51:06.362Z,23.94
2019-06-26T05:54:07.852Z,24.06
2019-06-26T05:57:10.999Z,24.12
2019-06-26T06:00:13.093Z,24.19
2019-06-26T06:03:14.669Z,24.25
2019-06-26T06:06:16.107Z,24.31
2019-06-26T06:09:17.674Z,24.37
2019-06-26T06:38:14.963Z,25.06
2019-06-26T06:41:16.403Z,25.06
2019-06-26T06:44:17.942Z,25.12
2019-06-26T06:47:19.418Z,25.25
2019-06-26T06:50:20.844Z,25.31
2019-06-26T06:53:22.289Z,25.44
2019-06-26T06:56:23.778Z,25.44
2019-06-26T06:59:25.198Z,25.50
2019-06-26T07:02:26.718Z,25.62
2019-06-26T07:05:28.146Z,25.62
2019-06-26T07:08:29.629Z,25.81
2019-06-26T07:11:31.115Z,25.81
2019-06-26T07:14:32.644Z,25.81
2019-06-26T07:17:34.197Z,26.00
2019-06-26T07:20:35.730Z,26.00
2019-06-26T07:23:37.095Z,26.12
2019-06-26T07:26:38.600Z,26.25
2019-06-26T07:29:40.009Z,26.37
2019-06-26T07:32:41.562Z,26.44
2019-06-26T07:35:43.158Z,26.44
2019-06-26T07:38:44.576Z,26.81
2019-06-26T07:41:46.045Z,26.87
2019-06-26T07:44:47.569Z,27.13
2019-06-26T07:47:48.995Z,27.06
2019-06-26T07:50:50.448Z,27.13
2019-06-26T07:53:52.110Z,27.37
2019-06-26T07:56:53.524Z,27.56
2019-06-26T07:59:55.032Z,27.56
2019-06-26T08:02:57.588Z,27.75
2019-06-26T08:05:59.083Z,27.81
2019-06-26T08:09:00.515Z,27.81
2019-06-26T08:12:03.648Z,27.81
2019-06-26T08:15:05.305Z,27.87
2019-06-26T08:18:06.789Z,28.06
2019-06-26T08:21:12.665Z,28.31
2019-06-26T08:24:11.469Z,28.44
2019-06-26T08:27:13.350Z,28.56
2019-06-26T08:30:15.305Z,28.69
2019-06-26T08:33:16.824Z,28.94
2019-06-26T08:36:18.418Z,29.31
2019-06-26T08:39:19.828Z,29.50
2019-06-26T08:42:21.388Z,29.56
2019-06-26T08:45:22.948Z,29.37
2019-06-26T08:48:38.869Z,29.44
2019-06-26T08:51:27.662Z,29.69
2019-06-26T08:54:29.151Z,29.87
2019-06-26T08:57:30.673Z,29.87
2019-06-26T09:00:32.104Z,30.00
2019-06-26T09:03:33.535Z,30.12
2019-06-26T09:06:36.095Z,30.12
2019-06-26T09:09:37.566Z,30.00
2019-06-26T09:12:39.229Z,30.50
2019-06-26T09:15:40.715Z,30.37
2019-06-26T09:18:42.229Z,30.62
2019-06-26T09:21:43.669Z,30.81
2019-06-26T09:24:45.139Z,30.62
2019-06-26T09:27:46.638Z,30.88
2019-06-26T09:30:49.206Z,30.88
2019-06-26T09:33:50.820Z,30.88
2019-06-26T09:36:52.313Z,31.12
2019-06-26T09:39:53.755Z,31.25
2019-06-26T09:42:55.185Z,31.19
2019-06-26T09:45:56.659Z,30.81
2019-06-26T09:48:58.094Z,30.94
2019-06-26T09:51:59.576Z,31.50
2019-06-26T09:55:01.014Z,31.69
2019-06-26T09:58:02.542Z,31.62
2019-06-26T10:01:04.225Z,31.75
2019-06-26T10:04:05.690Z,31.75
2019-06-26T10:07:07.177Z,31.87
2019-06-26T10:10:09.002Z,32.19
2019-06-26T10:13:10.432Z,32.06
2019-06-26T10:16:11.921Z,32.25
2019-06-26T10:19:13.373Z,32.44
2019-06-26T10:22:14.782Z,32.25
2019-06-26T10:25:17.352Z,32.25
2019-06-26T10:28:18.911Z,32.56
2019-06-26T10:31:20.360Z,32.56
2019-06-26T10:34:21.896Z,32.44
2019-06-26T10:37:24.459Z,32.63
2019-06-26T10:40:26.928Z,32.56
2019-06-26T10:43:28.393Z,32.63
2019-06-26T10:46:30.463Z,32.81
2019-06-26T10:49:31.913Z,32.81
2019-06-26T10:52:33.348Z,32.81
2019-06-26T10:55:34.978Z,33.13
2019-06-26T10:58:37.477Z,33.31
2019-06-26T11:01:38.954Z,33.25
2019-06-26T11:04:40.480Z,33.00
2019-06-26T11:07:41.964Z,33.13
2019-06-26T11:10:43.384Z,33.25
2019-06-26T11:13:44.873Z,33.31
2019-06-26T11:16:46.326Z,33.56
2019-06-26T11:19:47.761Z,33.69
2019-06-26T11:22:49.318Z,33.56
2019-06-26T11:25:50.779Z,33.56
2019-06-26T11:28:52.241Z,33.69
2019-06-26T11:31:53.663Z,33.44
2019-06-26T11:34:56.190Z,33.69
2019-06-26T11:37:57.625Z,33.69
2019-06-26T11:41:01.812Z,33.63
2019-06-26T11:44:02.177Z,33.69
2019-06-26T11:47:03.646Z,33.63
2019-06-26T11:50:05.951Z,34.00
2019-06-26T11:53:07.375Z,33.88
2019-06-26T11:56:09.410Z,34.00
2019-06-26T11:59:10.842Z,33.75
2019-06-26T12:02:12.302Z,33.63
2019-06-26T12:05:14.361Z,33.63
2019-06-26T12:08:18.403Z,33.69
2019-06-26T12:11:18.985Z,33.94
2019-06-26T12:14:20.436Z,34.00
2019-06-26T12:17:21.843Z,34.06
2019-06-26T12:20:24.005Z,34.00
2019-06-26T12:23:25.439Z,34.00
2019-06-26T12:26:26.856Z,34.06
2019-06-26T12:29:28.317Z,33.81
2019-06-26T12:32:29.771Z,33.75
2019-06-26T12:35:31.207Z,33.94
2019-06-26T12:38:32.639Z,34.25
2019-06-26T12:41:34.087Z,34.13
2019-06-26T12:44:35.552Z,34.06
2019-06-26T12:47:37.157Z,34.00
2019-06-26T12:50:38.602Z,34.06
2019-06-26T12:53:40.031Z,34.19
2019-06-26T12:56:41.535Z,34.38
2019-06-26T12:59:56.661Z,34.44
2019-06-26T13:02:46.171Z,34.44
2019-06-26T13:05:47.592Z,34.38
2019-06-26T13:08:49.070Z,34.25
2019-06-26T13:11:50.514Z,34.31
2019-06-26T13:14:51.923Z,34.25
2019-06-26T13:17:53.377Z,34.31
2019-06-26T13:20:54.848Z,34.50
2019-06-26T13:23:56.248Z,34.44
2019-06-26T13:26:57.639Z,34.38
2019-06-26T13:29:59.078Z,34.31
2019-06-26T13:33:00.537Z,34.56
2019-06-26T13:36:02.141Z,34.44
2019-06-26T13:39:03.978Z,34.38
2019-06-26T13:42:05.504Z,34.50
2019-06-26T13:45:07.274Z,34.50
2019-06-26T13:48:08.837Z,34.50
2019-06-26T13:51:10.438Z,34.38
2019-06-26T13:54:13.486Z,34.31
2019-06-26T13:57:15.850Z,34.44
2019-06-26T14:00:17.914Z,34.56
2019-06-26T14:03:19.357Z,34.13
2019-06-26T14:06:20.749Z,34.13
2019-06-26T14:09:23.249Z,34.25
2019-06-26T14:12:24.781Z,34.31
2019-06-26T14:15:26.708Z,34.31
2019-06-26T14:18:30.373Z,34.19
2019-06-26T14:21:31.242Z,34.38
2019-06-26T14:24:32.631Z,34.38
2019-06-26T14:27:34.063Z,34.25
2019-06-26T14:30:35.473Z,34.38
2019-06-26T14:33:36.892Z,34.44
2019-06-26T14:36:38.331Z,34.44
2019-06-26T14:39:41.042Z,34.56
2019-06-26T14:42:42.633Z,34.63
2019-06-26T14:45:44.493Z,34.56
2019-06-26T14:48:45.898Z,34.44
2019-06-26T14:51:48.011Z,34.44
2019-06-26T14:54:49.565Z,34.50
2019-06-26T14:57:50.994Z,34.63
2019-06-26T15:00:52.403Z,34.50
2019-06-26T15:03:53.835Z,34.56
2019-06-26T15:06:55.241Z,34.38
2019-06-26T15:09:56.659Z,34.44
2019-06-26T15:12:58.062Z,34.50
2019-06-26T15:15:59.515Z,34.38
2019-06-26T15:19:01.981Z,34.50
2019-06-26T15:22:03.399Z,34.44
2019-06-26T15:25:04.953Z,34.56
2019-06-26T15:28:09.429Z,34.38
2019-06-26T15:31:09.497Z,34.38
2019-06-26T15:34:10.870Z,34.50
2019-06-26T15:37:13.369Z,34.44
2019-06-26T15:40:15.311Z,34.38
2019-06-26T15:43:16.738Z,34.44
2019-06-26T15:46:18.131Z,34.31
2019-06-26T15:49:19.602Z,34.31
2019-06-26T15:52:21.067Z,34.38
2019-06-26T15:55:22.459Z,34.31
2019-06-26T15:58:23.912Z,34.31
2019-06-26T16:01:25.343Z,34.19
2019-06-26T16:04:26.749Z,34.19
2019-06-26T16:07:28.136Z,34.19
2019-06-26T16:10:29.558Z,34.19
2019-06-26T16:13:31.479Z,34.25
2019-06-26T16:16:34.323Z,34.13
2019-06-26T16:19:35.749Z,34.13
2019-06-26T16:22:37.149Z,34.06
2019-06-26T16:25:38.577Z,34.06
2019-06-26T16:28:39.975Z,34.06
2019-06-26T16:31:41.396Z,34.06
2019-06-26T16:34:42.806Z,34.00
2019-06-26T16:37:44.239Z,33.81
2019-06-26T16:40:45.711Z,33.81
2019-06-26T16:43:47.105Z,33.81
2019-06-26T16:46:48.506Z,33.81
2019-06-26T16:49:49.919Z,33.75
2019-06-26T16:52:51.329Z,33.75
2019-06-26T16:55:52.848Z,33.69
2019-06-26T16:58:54.274Z,33.56
2019-06-26T17:01:55.717Z,33.44
2019-06-26T17:04:57.112Z,33.50
2019-06-26T17:07:58.535Z,33.38
2019-06-26T17:11:01.677Z,33.25
2019-06-26T17:14:03.091Z,33.25
2019-06-26T17:17:04.486Z,33.31
2019-06-26T17:20:06.787Z,33.25
2019-06-26T17:23:08.380Z,33.25
2019-06-26T17:26:09.793Z,33.13
2019-06-26T17:29:11.196Z,33.06
2019-06-26T17:32:12.636Z,33.00
2019-06-26T17:35:14.172Z,32.81
2019-06-26T17:38:15.619Z,32.75
2019-06-26T17:41:17.032Z,32.69
2019-06-26T17:44:18.444Z,32.69
2019-06-26T17:47:19.854Z,32.63
2019-06-26T17:50:21.291Z,32.38
2019-06-26T17:53:22.704Z,32.38
2019-06-26T17:56:24.102Z,32.25
2019-06-26T17:59:25.492Z,32.25
2019-06-26T18:02:26.936Z,32.13
2019-06-26T18:05:28.364Z,31.94
2019-06-26T18:08:29.803Z,31.87
2019-06-26T18:11:32.253Z,31.94
2019-06-26T18:14:33.654Z,31.87
2019-06-26T18:17:35.066Z,31.75
2019-06-26T18:20:36.499Z,31.56
2019-06-26T18:23:38.740Z,31.50
2019-06-26T18:26:40.291Z,31.50
2019-06-26T18:29:41.748Z,31.31
2019-06-26T18:32:43.215Z,31.31
2019-06-26T18:35:44.642Z,31.25
2019-06-26T18:38:46.078Z,31.06
2019-06-26T18:41:47.525Z,30.75
2019-06-26T18:44:48.945Z,30.81
2019-06-26T18:47:50.376Z,30.75
2019-06-26T18:50:51.747Z,30.62
2019-06-26T18:53:54.217Z,30.37
2019-06-26T18:56:55.619Z,30.31
2019-06-26T18:59:57.013Z,30.31
2019-06-26T19:02:59.496Z,30.19
2019-06-26T19:06:00.929Z,29.94
2019-06-26T19:09:02.481Z,29.81
2019-06-26T19:12:05.672Z,29.63
2019-06-26T19:15:07.302Z,29.63
2019-06-26T19:18:08.699Z,29.75
2019-06-26T19:21:10.126Z,29.81
2019-06-26T19:24:12.632Z,29.81
2019-06-26T19:27:14.076Z,29.69
2019-06-26T19:30:17.082Z,29.69
2019-06-26T19:33:18.566Z,29.50
2019-06-26T19:36:24.162Z,29.25
2019-06-26T19:39:24.220Z,29.00
2019-06-26T19:42:25.612Z,28.87
2019-06-26T19:45:27.425Z,28.75
2019-06-26T19:48:28.823Z,28.62
2019-06-26T19:51:30.260Z,28.75
2019-06-26T19:54:32.393Z,28.87
2019-06-26T19:57:34.012Z,29.00
2019-06-26T20:00:35.463Z,28.75
2019-06-26T20:03:36.959Z,28.44
2019-06-26T20:06:38.439Z,28.25
2019-06-26T20:09:39.940Z,28.00
2019-06-26T20:12:41.355Z,28.00
2019-06-26T20:15:42.866Z,27.81
2019-06-26T20:18:44.304Z,27.50
2019-06-26T20:21:45.780Z,27.31
2019-06-26T20:24:47.181Z,27.44
2019-06-26T20:27:48.579Z,27.87
2019-06-26T20:30:49.979Z,27.87
2019-06-26T20:33:51.346Z,27.81
2019-06-26T20:36:52.782Z,27.75
2019-06-26T20:39:54.224Z,27.75
2019-06-26T20:42:55.641Z,27.62
2019-06-26T20:45:57.053Z,27.62
2019-06-26T20:48:58.499Z,27.56
2019-06-26T20:51:59.936Z,27.56
2019-06-26T20:55:02.789Z,27.44
2019-06-26T20:58:04.394Z,27.31
2019-06-26T21:01:06.899Z,27.13
2019-06-26T21:04:08.317Z,27.19
2019-06-26T21:07:09.763Z,27.31
2019-06-26T21:10:12.942Z,27.25
2019-06-26T21:13:14.357Z,27.31
2019-06-26T21:16:15.773Z,27.37
2019-06-26T21:19:17.203Z,27.31
2019-06-26T21:22:18.634Z,27.13
2019-06-26T21:25:20.098Z,27.06
2019-06-26T21:28:21.507Z,26.75
2019-06-26T21:31:22.874Z,26.81
2019-06-26T21:34:24.260Z,26.87
2019-06-26T21:37:25.710Z,26.87
2019-06-26T21:40:27.172Z,26.44
2019-06-26T21:43:28.604Z,26.50
2019-06-26T21:46:30.026Z,26.37
2019-06-26T21:49:31.445Z,26.06
2019-06-26T21:52:32.848Z,25.94
2019-06-26T21:55:35.098Z,26.00
2019-06-26T21:58:54.445Z,26.00
2019-06-26T22:02:13.641Z,25.81
2019-06-26T22:05:26.449Z,25.69
2019-06-26T22:08:48.760Z,25.75
2019-06-26T22:11:51.721Z,26.06
2019-06-26T22:15:07.276Z,26.25
2019-06-26T22:18:10.368Z,25.94
2019-06-26T22:21:11.977Z,26.06
2019-06-26T22:24:13.444Z,26.19
2019-06-26T22:27:15.305Z,26.06
2019-06-26T22:30:17.377Z,26.31
2019-06-26T22:33:18.892Z,26.19
2019-06-26T22:36:20.331Z,25.94
2019-06-26T22:39:21.806Z,25.88
2019-06-26T22:42:23.278Z,25.88
2019-06-26T22:45:24.792Z,25.81
2019-06-26T22:48:26.220Z,25.81
2019-06-26T22:51:27.689Z,25.37
2019-06-26T22:54:29.104Z,25.44
2019-06-26T22:57:30.556Z,25.37
2019-06-26T23:00:31.979Z,25.31
2019-06-26T23:03:33.482Z,25.37
2019-06-26T23:06:37.545Z,25.19
2019-06-26T23:09:39.029Z,24.87
2019-06-26T23:12:40.496Z,25.00
2019-06-26T23:15:41.950Z,25.19
2019-06-26T23:18:43.350Z,25.44
2019-06-26T23:21:44.843Z,25.69
2019-06-26T23:24:46.268Z,25.50
2019-06-26T23:27:47.691Z,25.56
2019-06-26T23:30:49.086Z,25.31
2019-06-26T23:33:50.526Z,25.25
2019-06-26T23:36:52.057Z,25.25
2019-06-26T23:39:53.498Z,25.31
2019-06-26T23:42:54.879Z,24.94
2019-06-26T23:45:56.287Z,25.06
2019-06-26T23:48:57.716Z,25.12
2019-06-26T23:51:59.224Z,25.19
2019-06-26T23:55:00.628Z,25.25
2019-06-26T23:58:03.315Z,25.12
